KEFK

Details ICAO KEFK
Name NEWPORT STATE
Region United States
Timezone America/New_York (UTC-4.0)
Plans Departing 7
Arriving 3
Stats Elevation 930 ft / 283 m (AMSL)
Location 44.888792° -72.229172°
Runways 2
Magnetic Variation 14.829° W
Sunrise 2018-05-25 09:12:03 UTC / 2018-05-25 05:12:03 Local
Sunset 2018-05-26 00:22:34 UTC / 2018-05-25 20:22:34 Local
Advertisement - Login to hide

Runways

ID Width Length Bearing (true) Bearing (mag) Surface Threshold Offset Overrun Length
05 100 ft / 30 m 4,000 ft / 1,219 m 29.42° 44.25° Asphalt 0 ft / 0 m 0 ft / 0 m
18 100 ft / 30 m 3,998 ft / 1,218 m 159.61° 174.44° Asphalt 0 ft / 0 m 0 ft / 0 m
23 100 ft / 30 m 4,000 ft / 1,219 m 209.43° 224.26° Asphalt 0 ft / 0 m 0 ft / 0 m
36 100 ft / 30 m 3,998 ft / 1,218 m 339.62° 354.45° Asphalt 0 ft / 0 m 0 ft / 0 m

Map

Weather


0- 5 10 15 20 25 30 35+ Temperature / ° C

Clouds and Precipitation
Forecast for 2018-05-25 12:00 UTC. Updated 12 minutes ago

Ground ~20,000 ft ~40,000 ft Winds

METAR

KEFK 251135Z AUTO 22006G15KT 10SM CLR 20/09 A2985 RMK AO2 T01990091

TAF

Not found

Frequencies

Recorded 118.27 MHz AWOS 3
Unicom 122.80 MHz CTAF/UNICOM
Warning: Do not use this data for real-world aviation or navigation. No guarantee of current accuracy is given.